KFAF

Felker AAF Airport

Fort Eustis, Virginia, USA
METAR KFAF 191256Z AUTO 32006KT 10SM CLR 24/21 A2988 RMK AO2 SLP121 T02390208 $
Observed Flight Rules
Sep-19 @ 12:56 UTC (25 minutes ago) Visual Flight Rules
Wind Visibility Clouds
320° at 6 knots 10 miles
  • Clear skies
Temperatures Readings
Current 24°C / 75°F
Dewpoint 21°C / 70°F
Humidity 83%
Altimeter 29.88" Hg
Pressure 1012.1 hPa
Elevation 4
METAR KFAF 191256Z AUTO 32006KT 10SM CLR 24/21 A2988 RMK AO2 SLP121 T02390208 $
Observed Flight Rules
Sep-19 @ 12:56 UTC
(25 minutes ago)
VFR
Wind Visibility
320° at 6 knots 10 miles
Clouds
  • Clear skies
Temperature Dewpoint
24°C / 75°F 21°C / 70°F
Humidity Altimeter Pressure
83% 29.88" Hg 1012.1 hPa